Time;durP1;ratioP1;P1;durP2;ratioP2;P2;SDS_P1;SDS_P2;PMS_P1;PMS_P2;Temp;Humidity;BMP_temperature;BMP_pressure;BME280_temperature;BME280_humidity;BME280_pressure;Samples;Min_cycle;Max_cycle;Signal;HPM_P1;HPM_P2
2023/05/03 00:01:13;;;;;;;11.98;11.20;;;;;;;;;;5000402;28;20425;-51
2023/05/03 00:03:39;;;;;;;10.27;9.57;;;;;;;;;;5001721;28;20578;-49
2023/05/03 00:06:10;;;;;;;8.90;8.30;;;;;;;;;;4999861;28;20030;-61
2023/05/03 00:08:36;;;;;;;10.55;9.55;;;;;;;;;;4999525;28;20038;-60
2023/05/03 00:11:01;;;;;;;10.63;9.93;;;;;;;;;;4999140;28;20030;-48
2023/05/03 00:13:26;;;;;;;10.10;9.50;;;;;;;;;;4997830;28;20042;-47
2023/05/03 00:15:52;;;;;;;10.00;9.38;;;;;;;;;;5001632;28;20036;-48
2023/05/03 00:18:17;;;;;;;10.85;10.15;;;;;;;;;;4980151;28;20073;-60
2023/05/03 00:20:42;;;;;;;9.80;9.20;;;;;;;;;;4998904;28;20034;-50
2023/05/03 00:23:08;;;;;;;9.90;9.23;;;;;;;;;;4997797;28;20089;-49
2023/05/03 00:25:33;;;;;;;8.95;8.35;;;;;;;;;;5000277;28;20427;-53
2023/05/03 00:27:59;;;;;;;9.63;9.02;;;;;;;;;;4998661;28;20038;-53
2023/05/03 00:30:24;;;;;;;9.60;8.90;;;;;;;;;;5000334;28;20034;-51
2023/05/03 00:32:50;;;;;;;9.73;9.07;;;;;;;;;;4998750;28;20121;-50
2023/05/03 00:35:16;;;;;;;10.75;10.05;;;;;;;;;;4996738;28;20763;-60
2023/05/03 00:37:41;;;;;;;9.85;9.25;;;;;;;;;;4999503;28;20038;-60
2023/05/03 00:40:07;;;;;;;9.52;8.73;;;;;;;;;;4999234;28;20038;-59
2023/05/03 00:42:35;;;;;;;9.40;8.60;;;;;;;;;;4996268;28;20037;-49
2023/05/03 00:45:03;;;;;;;9.68;9.07;;;;;;;;;;5000998;28;20030;-59
2023/05/03 00:47:29;;;;;;;8.77;8.18;;;;;;;;;;4994941;28;20510;-52
2023/05/03 00:49:55;;;;;;;9.77;9.13;;;;;;;;;;5001192;28;20037;-59
2023/05/03 00:52:20;;;;;;;8.60;8.07;;;;;;;;;;4999177;28;20030;-59
2023/05/03 00:54:46;;;;;;;9.10;8.50;;;;;;;;;;4994776;28;20030;-59
2023/05/03 00:57:11;;;;;;;9.15;8.55;;;;;;;;;;4999229;28;20046;-60
2023/05/03 00:59:37;;;;;;;9.95;9.35;;;;;;;;;;4988441;28;20057;-60
2023/05/03 01:02:03;;;;;;;8.48;7.97;;;;;;;;;;5001643;28;20066;-60
2023/05/03 01:04:29;;;;;;;9.32;8.70;;;;;;;;;;4998425;28;20038;-59
2023/05/03 01:07:24;;;;;;;9.02;8.43;;;;;;;;;;4999789;28;20034;-59
2023/05/03 01:10:03;;;;;;;10.00;9.40;;;;;;;;;;4964231;28;20046;-58
2023/05/03 01:12:52;;;;;;;10.60;9.90;;;;;;;;;;4999255;28;20029;-59
2023/05/03 01:15:45;;;;;;;10.30;9.40;;;;;;;;;;4994344;28;20069;-48
2023/05/03 01:18:14;;;;;;;8.82;8.23;;;;;;;;;;4980784;28;20038;-48
2023/05/03 01:20:42;;;;;;;9.55;8.95;;;;;;;;;;4997717;28;20048;-59
2023/05/03 01:23:29;;;;;;;9.32;8.73;;;;;;;;;;4999758;28;20448;-59
2023/05/03 01:25:55;;;;;;;9.32;8.73;;;;;;;;;;5000356;28;20443;-60
2023/05/03 01:28:21;;;;;;;10.70;10.00;;;;;;;;;;4996601;28;20041;-59
2023/05/03 01:30:48;;;;;;;9.35;8.75;;;;;;;;;;4981257;28;20029;-59
2023/05/03 01:33:31;;;;;;;10.38;9.68;;;;;;;;;;4999924;28;20030;-59
2023/05/03 01:36:03;;;;;;;9.48;8.88;;;;;;;;;;5000844;28;20026;-58
2023/05/03 01:38:34;;;;;;;10.38;9.32;;;;;;;;;;4995316;28;20487;-59
2023/05/03 01:41:02;;;;;;;10.38;9.60;;;;;;;;;;4997633;28;20041;-58
2023/05/03 01:43:30;;;;;;;9.95;9.27;;;;;;;;;;4998222;28;20038;-59
2023/05/03 01:45:56;;;;;;;9.75;9.15;;;;;;;;;;4998371;28;20030;-60
2023/05/03 01:48:21;;;;;;;9.60;9.00;;;;;;;;;;4993203;28;20030;-60
2023/05/03 01:50:47;;;;;;;10.45;9.70;;;;;;;;;;4997447;28;20045;-59
2023/05/03 01:53:12;;;;;;;11.77;10.88;;;;;;;;;;4996511;28;20058;-59
2023/05/03 01:55:37;;;;;;;10.95;10.15;;;;;;;;;;4996929;28;20028;-59
2023/05/03 01:58:03;;;;;;;10.00;9.35;;;;;;;;;;4995278;28;20096;-59
2023/05/03 02:00:29;;;;;;;9.52;8.93;;;;;;;;;;4999051;28;20642;-60
2023/05/03 02:02:54;;;;;;;10.35;9.70;;;;;;;;;;5000293;28;20052;-59
2023/05/03 02:05:20;;;;;;;9.82;9.13;;;;;;;;;;4979216;28;20472;-60
2023/05/03 02:07:45;;;;;;;9.90;9.30;;;;;;;;;;4996709;28;20041;-60
2023/05/03 02:10:13;;;;;;;11.27;8.85;;;;;;;;;;4997141;28;20038;-59
2023/05/03 02:12:40;;;;;;;9.93;9.23;;;;;;;;;;4999489;28;20025;-60
2023/05/03 02:15:06;;;;;;;9.40;8.80;;;;;;;;;;4995255;28;20487;-51
2023/05/03 02:17:31;;;;;;;9.55;8.95;;;;;;;;;;4998063;28;20046;-59
2023/05/03 02:19:57;;;;;;;8.88;8.27;;;;;;;;;;4983300;28;20099;-60
2023/05/03 02:22:22;;;;;;;9.98;9.27;;;;;;;;;;4997406;28;20045;-49
2023/05/03 02:24:48;;;;;;;9.43;8.82;;;;;;;;;;4996232;28;20096;-60
2023/05/03 02:27:14;;;;;;;9.10;8.50;;;;;;;;;;4994961;28;20171;-60
2023/05/03 02:29:39;;;;;;;10.60;9.80;;;;;;;;;;4996067;28;20049;-64
2023/05/03 02:32:05;;;;;;;20.85;10.48;;;;;;;;;;5000717;28;20037;-51
2023/05/03 02:34:31;;;;;;;10.10;9.43;;;;;;;;;;4980005;28;20087;-49
2023/05/03 02:36:56;;;;;;;10.43;9.77;;;;;;;;;;4997186;28;20328;-61
2023/05/03 02:39:22;;;;;;;9.93;9.32;;;;;;;;;;4994930;28;20034;-56
2023/05/03 02:41:47;;;;;;;9.60;9.00;;;;;;;;;;4997821;28;20457;-47
2023/05/03 02:44:12;;;;;;;9.30;8.65;;;;;;;;;;4995829;28;20100;-59
2023/05/03 02:46:39;;;;;;;10.27;9.68;;;;;;;;;;4996559;28;20052;-47
2023/05/03 02:49:04;;;;;;;9.30;8.70;;;;;;;;;;5000936;28;20042;-59
2023/05/03 02:51:29;;;;;;;9.57;8.98;;;;;;;;;;4997304;28;20762;-49
2023/05/03 02:53:55;;;;;;;9.27;8.68;;;;;;;;;;4995438;28;20036;-59
2023/05/03 02:56:20;;;;;;;9.18;8.57;;;;;;;;;;4998564;28;20304;-49
2023/05/03 02:58:45;;;;;;;9.98;9.38;;;;;;;;;;4998730;28;20369;-59
2023/05/03 03:01:11;;;;;;;9.25;8.65;;;;;;;;;;4997996;28;20533;-59
2023/05/03 03:03:36;;;;;;;12.60;11.57;;;;;;;;;;4998765;28;20586;-59
2023/05/03 03:06:01;;;;;;;11.02;9.90;;;;;;;;;;4999340;28;20048;-59
2023/05/03 03:08:27;;;;;;;10.32;9.65;;;;;;;;;;5004467;28;20096;-59
2023/05/03 03:10:52;;;;;;;12.00;11.30;;;;;;;;;;5001051;28;20034;-60
2023/05/03 03:13:17;;;;;;;10.80;10.10;;;;;;;;;;5002523;28;20030;-48
2023/05/03 03:15:43;;;;;;;11.50;10.60;;;;;;;;;;5001970;28;20330;-46
2023/05/03 03:18:08;;;;;;;20.63;11.13;;;;;;;;;;5002859;28;20041;-51
2023/05/03 03:20:34;;;;;;;11.40;10.65;;;;;;;;;;4996810;28;20046;-49
2023/05/03 03:22:59;;;;;;;11.13;10.13;;;;;;;;;;5001905;28;20046;-50
2023/05/03 03:25:25;;;;;;;9.68;8.93;;;;;;;;;;5000647;28;20042;-59
2023/05/03 03:27:50;;;;;;;11.15;10.25;;;;;;;;;;4996836;28;20607;-59
2023/05/03 03:30:15;;;;;;;10.13;9.43;;;;;;;;;;5003688;28;20037;-50
2023/05/03 03:32:41;;;;;;;9.82;9.13;;;;;;;;;;5000575;28;20113;-59
2023/05/03 03:35:08;;;;;;;10.13;9.43;;;;;;;;;;5001300;28;20042;-59
2023/05/03 03:37:34;;;;;;;10.07;9.45;;;;;;;;;;5001345;28;20095;-49
2023/05/03 03:39:59;;;;;;;10.40;9.80;;;;;;;;;;4998854;28;20500;-49
2023/05/03 03:42:24;;;;;;;12.88;11.98;;;;;;;;;;5000771;28;20116;-59
2023/05/03 03:44:50;;;;;;;10.88;10.15;;;;;;;;;;4999511;28;20111;-60
2023/05/03 03:47:15;;;;;;;10.40;9.77;;;;;;;;;;4999368;28;20459;-50
2023/05/03 03:49:41;;;;;;;9.70;9.07;;;;;;;;;;5002257;28;20065;-59
2023/05/03 03:52:06;;;;;;;10.65;9.95;;;;;;;;;;4998476;28;20113;-59
2023/05/03 03:54:33;;;;;;;10.68;9.98;;;;;;;;;;4997171;28;20057;-59
2023/05/03 03:56:58;;;;;;;10.23;9.57;;;;;;;;;;5003238;28;20033;-59
2023/05/03 03:59:24;;;;;;;11.00;10.23;;;;;;;;;;5000045;28;20099;-59
2023/05/03 04:01:49;;;;;;;11.98;11.18;;;;;;;;;;4989742;28;20064;-59
2023/05/03 04:04:14;;;;;;;11.07;10.27;;;;;;;;;;5001028;28;20103;-60
2023/05/03 04:06:40;;;;;;;11.43;10.73;;;;;;;;;;4999210;28;20052;-59
2023/05/03 04:09:05;;;;;;;11.95;11.23;;;;;;;;;;4998643;28;20038;-49
2023/05/03 04:11:31;;;;;;;11.52;10.63;;;;;;;;;;4998586;28;20041;-49
2023/05/03 04:13:56;;;;;;;10.90;10.23;;;;;;;;;;4996907;28;20041;-59
2023/05/03 04:16:21;;;;;;;10.05;9.45;;;;;;;;;;4999538;28;20033;-59
2023/05/03 04:18:46;;;;;;;11.55;10.15;;;;;;;;;;5000490;28;20117;-50
2023/05/03 04:21:12;;;;;;;9.80;9.20;;;;;;;;;;5000529;28;20057;-48
2023/05/03 04:23:38;;;;;;;10.50;9.65;;;;;;;;;;4998923;28;20049;-47
2023/05/03 04:26:03;;;;;;;10.10;9.50;;;;;;;;;;4997003;28;20615;-60
2023/05/03 04:28:28;;;;;;;10.52;9.82;;;;;;;;;;4996015;28;20380;-48
2023/05/03 04:30:57;;;;;;;10.63;9.93;;;;;;;;;;4993365;28;20038;-59
2023/05/03 04:33:23;;;;;;;10.35;9.65;;;;;;;;;;4996831;28;20041;-59
2023/05/03 04:35:50;;;;;;;10.48;9.77;;;;;;;;;;4998748;28;20452;-48
2023/05/03 04:38:16;;;;;;;9.68;9.07;;;;;;;;;;4999790;28;20034;-48
2023/05/03 04:40:41;;;;;;;10.00;9.40;;;;;;;;;;5001929;28;20042;-49
2023/05/03 04:43:07;;;;;;;10.55;9.85;;;;;;;;;;4984995;28;20048;-59
2023/05/03 04:45:32;;;;;;;9.93;9.27;;;;;;;;;;4981874;28;20044;-60
2023/05/03 04:47:58;;;;;;;9.75;9.13;;;;;;;;;;4998293;28;20038;-50
2023/05/03 04:50:23;;;;;;;10.85;10.15;;;;;;;;;;4999657;28;20731;-60
2023/05/03 04:52:48;;;;;;;12.40;11.48;;;;;;;;;;4998131;28;20026;-52
2023/05/03 04:55:14;;;;;;;10.25;9.65;;;;;;;;;;5000296;28;20140;-52
2023/05/03 04:57:39;;;;;;;10.50;9.82;;;;;;;;;;5001591;28;20514;-49
2023/05/03 05:00:10;;;;;;;10.00;9.30;;;;;;;;;;5002468;28;20042;-52
2023/05/03 05:02:35;;;;;;;10.55;9.75;;;;;;;;;;4997742;28;20442;-49
2023/05/03 05:05:01;;;;;;;9.82;9.15;;;;;;;;;;4988075;28;20066;-47
2023/05/03 05:07:26;;;;;;;9.93;9.25;;;;;;;;;;4999503;28;20034;-58
2023/05/03 05:09:52;;;;;;;11.23;10.30;;;;;;;;;;5000106;28;20546;-59
2023/05/03 05:12:17;;;;;;;9.68;9.07;;;;;;;;;;4997724;28;20435;-48
2023/05/03 05:14:44;;;;;;;10.43;9.73;;;;;;;;;;4995475;28;20045;-48
2023/05/03 05:17:09;;;;;;;9.57;8.90;;;;;;;;;;5000830;28;20472;-47
2023/05/03 05:19:35;;;;;;;9.95;9.32;;;;;;;;;;4998670;28;20073;-49
2023/05/03 05:22:00;;;;;;;10.57;9.88;;;;;;;;;;4997263;28;20468;-59
2023/05/03 05:24:25;;;;;;;9.82;9.15;;;;;;;;;;4975738;28;20128;-59
2023/05/03 05:26:51;;;;;;;9.68;8.88;;;;;;;;;;5001604;28;20037;-49
2023/05/03 05:29:16;;;;;;;10.07;9.48;;;;;;;;;;4997442;28;20045;-51
2023/05/03 05:31:42;;;;;;;10.40;9.70;;;;;;;;;;4980781;28;20033;-46
2023/05/03 05:34:07;;;;;;;9.30;8.70;;;;;;;;;;4999698;28;20077;-58
2023/05/03 05:36:32;;;;;;;9.55;8.85;;;;;;;;;;4994622;28;20567;-49
2023/05/03 05:38:58;;;;;;;9.55;8.95;;;;;;;;;;4996618;28;20034;-51
2023/05/03 05:41:23;;;;;;;9.70;9.10;;;;;;;;;;4997707;28;20038;-50
2023/05/03 05:43:49;;;;;;;9.63;9.02;;;;;;;;;;4994694;28;20045;-46
2023/05/03 05:46:15;;;;;;;9.65;9.05;;;;;;;;;;4998769;28;20493;-49
2023/05/03 05:48:41;;;;;;;10.30;9.60;;;;;;;;;;4996913;28;20029;-48
2023/05/03 05:51:06;;;;;;;9.70;9.02;;;;;;;;;;5000222;28;20030;-49
2023/05/03 05:53:32;;;;;;;10.60;9.75;;;;;;;;;;4995107;28;20033;-49
2023/05/03 05:55:57;;;;;;;34.85;9.88;;;;;;;;;;4996119;28;20037;-49
2023/05/03 05:58:23;;;;;;;10.30;9.60;;;;;;;;;;4998489;28;20429;-48
2023/05/03 06:00:48;;;;;;;10.32;9.68;;;;;;;;;;4994057;28;20029;-52
2023/05/03 06:03:14;;;;;;;10.77;10.07;;;;;;;;;;4997885;28;20049;-47
2023/05/03 06:05:40;;;;;;;9.57;8.98;;;;;;;;;;4997004;28;20038;-48
2023/05/03 06:08:05;;;;;;;10.55;9.85;;;;;;;;;;4996007;28;20037;-51
2023/05/03 06:10:31;;;;;;;10.13;9.50;;;;;;;;;;4994604;28;20034;-50
2023/05/03 06:12:56;;;;;;;9.88;9.27;;;;;;;;;;4995687;28;20524;-50
2023/05/03 06:15:22;;;;;;;10.30;9.65;;;;;;;;;;4995353;28;20471;-52
2023/05/03 06:17:47;;;;;;;10.75;9.68;;;;;;;;;;4995120;28;20038;-51
2023/05/03 06:20:12;;;;;;;10.25;9.55;;;;;;;;;;4997876;28;20387;-48
2023/05/03 06:22:38;;;;;;;11.43;10.73;;;;;;;;;;4996009;28;20114;-47
2023/05/03 06:25:04;;;;;;;11.93;11.13;;;;;;;;;;4995532;28;20084;-51
2023/05/03 06:27:29;;;;;;;13.18;12.38;;;;;;;;;;4999467;28;20408;-47
2023/05/03 06:29:55;;;;;;;11.88;11.18;;;;;;;;;;4996057;28;20087;-51
2023/05/03 06:32:20;;;;;;;12.98;12.18;;;;;;;;;;4994837;28;20031;-47
2023/05/03 06:34:47;;;;;;;12.45;11.65;;;;;;;;;;4995123;28;20040;-49
2023/05/03 06:37:13;;;;;;;14.32;13.45;;;;;;;;;;4997279;28;20045;-49
2023/05/03 06:39:38;;;;;;;13.63;12.82;;;;;;;;;;4975883;28;20034;-49
2023/05/03 06:42:03;;;;;;;13.55;12.75;;;;;;;;;;4995756;28;20125;-47
2023/05/03 06:44:29;;;;;;;13.95;13.15;;;;;;;;;;4997341;28;20112;-51
2023/05/03 06:46:54;;;;;;;15.05;13.43;;;;;;;;;;4995302;28;20095;-52
2023/05/03 06:49:21;;;;;;;15.15;14.02;;;;;;;;;;4993720;28;20419;-48
2023/05/03 06:51:46;;;;;;;12.52;11.73;;;;;;;;;;4998753;28;20099;-49
2023/05/03 06:54:11;;;;;;;13.68;11.27;;;;;;;;;;4996011;28;20547;-48
2023/05/03 06:56:37;;;;;;;13.07;11.77;;;;;;;;;;4996122;28;20031;-47
2023/05/03 06:59:03;;;;;;;13.15;12.35;;;;;;;;;;4996369;28;20045;-48
2023/05/03 07:01:30;;;;;;;11.10;10.40;;;;;;;;;;5002823;28;20073;-50
2023/05/03 07:03:55;;;;;;;11.95;11.25;;;;;;;;;;4995354;28;20414;-48
2023/05/03 07:06:22;;;;;;;10.98;10.27;;;;;;;;;;4995948;28;20034;-47
2023/05/03 07:08:50;;;;;;;11.05;10.35;;;;;;;;;;4994630;28;20131;-47
2023/05/03 07:11:15;;;;;;;11.30;10.60;;;;;;;;;;4996990;28;20558;-50
2023/05/03 07:13:41;;;;;;;13.35;11.68;;;;;;;;;;4993869;28;20113;-51
2023/05/03 07:16:06;;;;;;;11.60;10.90;;;;;;;;;;4996990;28;20026;-48
2023/05/03 07:18:32;;;;;;;12.05;11.15;;;;;;;;;;4997147;28;20034;-49
2023/05/03 07:20:57;;;;;;;11.77;11.07;;;;;;;;;;4994696;28;20113;-51
2023/05/03 07:23:22;;;;;;;11.32;10.63;;;;;;;;;;4980734;28;20050;-48
2023/05/03 07:25:48;;;;;;;11.27;10.57;;;;;;;;;;4994848;28;20068;-48
2023/05/03 07:28:15;;;;;;;10.82;10.18;;;;;;;;;;4977795;28;20081;-48
2023/05/03 07:30:40;;;;;;;11.50;10.75;;;;;;;;;;4995511;28;20156;-49
2023/05/03 07:33:07;;;;;;;11.45;10.75;;;;;;;;;;4998370;28;20117;-48
2023/05/03 07:35:32;;;;;;;11.60;10.80;;;;;;;;;;4998613;28;20694;-47
2023/05/03 07:37:57;;;;;;;10.40;9.80;;;;;;;;;;4995689;28;20041;-46
2023/05/03 07:40:23;;;;;;;10.98;10.27;;;;;;;;;;4995673;28;20065;-48
2023/05/03 07:42:48;;;;;;;10.77;10.07;;;;;;;;;;4995554;28;20029;-49
2023/05/03 07:45:13;;;;;;;11.07;10.38;;;;;;;;;;4994651;28;20479;-49
2023/05/03 07:47:39;;;;;;;11.50;10.80;;;;;;;;;;4997248;28;20034;-50
2023/05/03 07:50:06;;;;;;;11.90;11.20;;;;;;;;;;5001058;28;20092;-50
2023/05/03 07:52:35;;;;;;;11.57;10.88;;;;;;;;;;5000275;28;20041;-47
2023/05/03 07:55:02;;;;;;;12.48;11.63;;;;;;;;;;5000800;28;20044;-50
2023/05/03 07:57:27;;;;;;;14.82;13.52;;;;;;;;;;4998013;28;20034;-50
2023/05/03 07:59:52;;;;;;;11.70;10.98;;;;;;;;;;4999659;28;20049;-59
2023/05/03 08:02:18;;;;;;;11.15;10.45;;;;;;;;;;5003265;28;20037;-59
2023/05/03 08:04:43;;;;;;;11.63;10.93;;;;;;;;;;4996616;28;20121;-59
2023/05/03 08:07:09;;;;;;;12.25;11.23;;;;;;;;;;4983747;28;20025;-48
2023/05/03 08:09:35;;;;;;;11.07;10.38;;;;;;;;;;5000809;28;20025;-58
2023/05/03 08:12:02;;;;;;;13.02;12.13;;;;;;;;;;4999458;28;20065;-58
2023/05/03 08:14:27;;;;;;;11.93;11.20;;;;;;;;;;4998788;28;20038;-59
2023/05/03 08:16:52;;;;;;;12.35;11.65;;;;;;;;;;5000335;28;20053;-60
2023/05/03 08:19:18;;;;;;;12.13;11.43;;;;;;;;;;4998430;28;20056;-59
2023/05/03 08:21:43;;;;;;;11.75;11.05;;;;;;;;;;4999532;28;20034;-60
2023/05/03 08:24:09;;;;;;;12.35;11.65;;;;;;;;;;4981479;28;20045;-59
2023/05/03 08:26:35;;;;;;;12.18;11.48;;;;;;;;;;4996479;28;20069;-59
2023/05/03 08:29:02;;;;;;;11.70;11.00;;;;;;;;;;4980819;28;20049;-59
2023/05/03 08:31:29;;;;;;;12.05;11.35;;;;;;;;;;4999900;28;20553;-59
2023/05/03 08:33:54;;;;;;;13.85;12.98;;;;;;;;;;4997685;28;20037;-59
2023/05/03 08:36:20;;;;;;;13.65;12.85;;;;;;;;;;5002085;28;20027;-60
2023/05/03 08:38:45;;;;;;;13.20;12.40;;;;;;;;;;5000422;28;20372;-59
2023/05/03 08:41:24;;;;;;;13.07;12.27;;;;;;;;;;5000487;28;20034;-59
2023/05/03 08:43:54;;;;;;;13.93;13.02;;;;;;;;;;4996478;28;20481;-59
2023/05/03 08:46:20;;;;;;;12.27;11.57;;;;;;;;;;4996828;28;20031;-60
2023/05/03 08:48:51;;;;;;;14.43;13.13;;;;;;;;;;5000242;28;20084;-60
2023/05/03 08:51:19;;;;;;;14.98;14.07;;;;;;;;;;5002172;28;20062;-59
2023/05/03 08:53:45;;;;;;;15.93;14.63;;;;;;;;;;4997877;28;20115;-60
2023/05/03 08:56:15;;;;;;;13.38;12.57;;;;;;;;;;5000582;28;20052;-60
2023/05/03 08:58:40;;;;;;;15.25;14.35;;;;;;;;;;4997393;28;20046;-60
2023/05/03 09:01:08;;;;;;;15.70;14.70;;;;;;;;;;4998642;28;20033;-60
2023/05/03 09:03:35;;;;;;;14.32;13.43;;;;;;;;;;4996840;28;20119;-59
2023/05/03 09:06:01;;;;;;;13.63;12.73;;;;;;;;;;4997371;28;20042;-60
2023/05/03 09:08:30;;;;;;;13.70;12.90;;;;;;;;;;4999092;28;20099;-60
2023/05/03 09:10:56;;;;;;;15.57;14.43;;;;;;;;;;4997512;28;20038;-60
2023/05/03 09:13:29;;;;;;;13.48;12.68;;;;;;;;;;4998607;28;20466;-60
2023/05/03 09:15:56;;;;;;;12.45;11.70;;;;;;;;;;4997756;28;20116;-61
2023/05/03 09:18:22;;;;;;;12.55;11.85;;;;;;;;;;4998725;28;20041;-60
2023/05/03 09:20:51;;;;;;;14.43;13.35;;;;;;;;;;4997279;28;20113;-60
2023/05/03 09:23:25;;;;;;;12.50;11.73;;;;;;;;;;5001093;28;20176;-60
2023/05/03 09:25:51;;;;;;;13.50;12.70;;;;;;;;;;4997307;28;20388;-59
2023/05/03 09:28:18;;;;;;;12.68;11.88;;;;;;;;;;4996480;28;20056;-60
2023/05/03 09:30:45;;;;;;;12.95;12.15;;;;;;;;;;4998641;28;20108;-59
2023/05/03 09:33:17;;;;;;;13.27;12.45;;;;;;;;;;4995962;28;20048;-59
2023/05/03 09:35:57;;;;;;;13.55;12.65;;;;;;;;;;4997367;28;20171;-59
2023/05/03 09:38:28;;;;;;;12.73;12.02;;;;;;;;;;4996857;28;20136;-59
2023/05/03 09:40:53;;;;;;;16.25;14.88;;;;;;;;;;4995792;28;20125;-59
2023/05/03 09:43:19;;;;;;;13.57;12.77;;;;;;;;;;4997616;28;20550;-59
2023/05/03 09:45:44;;;;;;;13.93;13.13;;;;;;;;;;4996206;28;20034;-59
2023/05/03 09:48:11;;;;;;;15.90;15.00;;;;;;;;;;4996588;28;20101;-60
2023/05/03 09:50:36;;;;;;;15.43;14.43;;;;;;;;;;4975712;28;20482;-59
2023/05/03 09:53:06;;;;;;;14.32;13.50;;;;;;;;;;4994486;28;20073;-59
2023/05/03 09:55:39;;;;;;;14.75;13.85;;;;;;;;;;4996614;28;20112;-59
2023/05/03 09:58:06;;;;;;;15.10;14.20;;;;;;;;;;4985017;28;20038;-59
2023/05/03 10:00:36;;;;;;;13.93;13.13;;;;;;;;;;4998504;28;20022;-59
2023/05/03 10:03:07;;;;;;;13.57;12.77;;;;;;;;;;4998259;28;20038;-60
2023/05/03 10:05:41;;;;;;;14.13;13.13;;;;;;;;;;5000850;28;20048;-52
2023/05/03 10:08:09;;;;;;;12.82;12.02;;;;;;;;;;4996344;28;20041;-58
2023/05/03 10:10:36;;;;;;;15.05;14.15;;;;;;;;;;4995757;28;20037;-51
2023/05/03 10:13:02;;;;;;;16.20;15.30;;;;;;;;;;4997720;28;20483;-52
2023/05/03 10:15:28;;;;;;;16.52;15.63;;;;;;;;;;5000163;28;20033;-51
2023/05/03 10:17:56;;;;;;;18.83;17.65;;;;;;;;;;4996531;28;20041;-51
2023/05/03 10:20:49;;;;;;;18.30;17.25;;;;;;;;;;4998137;28;20419;-59
2023/05/03 10:23:14;;;;;;;20.48;19.27;;;;;;;;;;4995276;28;20034;-58
2023/05/03 10:26:10;;;;;;;17.27;16.27;;;;;;;;;;4998666;28;20049;-49
2023/05/03 10:28:38;;;;;;;19.88;18.77;;;;;;;;;;4999858;28;20048;-49
2023/05/03 10:31:04;;;;;;;19.20;18.17;;;;;;;;;;4998346;28;20065;-59
2023/05/03 10:33:32;;;;;;;20.27;19.08;;;;;;;;;;4996611;28;20088;-59
2023/05/03 10:35:59;;;;;;;22.98;21.75;;;;;;;;;;4996082;28;20030;-51
2023/05/03 10:38:28;;;;;;;24.05;22.75;;;;;;;;;;4996791;28;20033;-59
2023/05/03 10:40:55;;;;;;;26.52;25.08;;;;;;;;;;4997701;28;20119;-49
2023/05/03 10:43:32;;;;;;;23.63;22.33;;;;;;;;;;4996048;28;20061;-59
2023/05/03 10:46:02;;;;;;;26.58;25.17;;;;;;;;;;4995488;28;20049;-54
2023/05/03 10:48:29;;;;;;;23.90;22.55;;;;;;;;;;4998724;28;20038;-58
2023/05/03 10:50:56;;;;;;;21.40;20.20;;;;;;;;;;4996614;28;20499;-59
2023/05/03 10:53:30;;;;;;;27.88;26.17;;;;;;;;;;4996202;28;20105;-51
2023/05/03 10:56:07;;;;;;;25.50;24.10;;;;;;;;;;4998674;28;20140;-59
2023/05/03 10:58:44;;;;;;;25.23;23.90;;;;;;;;;;4998458;28;20388;-52
2023/05/03 11:01:11;;;;;;;25.13;23.77;;;;;;;;;;4996355;28;20598;-59
2023/05/03 11:03:43;;;;;;;28.65;27.13;;;;;;;;;;4992145;28;20037;-59
2023/05/03 11:06:09;;;;;;;29.42;27.63;;;;;;;;;;4993097;28;20043;-59
2023/05/03 11:08:37;;;;;;;28.48;26.98;;;;;;;;;;4993401;28;20034;-59
2023/05/03 11:11:08;;;;;;;26.83;25.42;;;;;;;;;;4993844;28;20053;-59
2023/05/03 11:13:36;;;;;;;23.98;22.70;;;;;;;;;;4997865;28;20037;-60
2023/05/03 11:16:02;;;;;;;20.45;19.35;;;;;;;;;;4997181;28;20038;-60
2023/05/03 11:18:28;;;;;;;19.48;18.38;;;;;;;;;;4981180;28;20126;-59
2023/05/03 11:20:54;;;;;;;28.50;27.00;;;;;;;;;;4997928;28;20462;-59
2023/05/03 11:23:24;;;;;;;27.85;26.40;;;;;;;;;;5001162;28;20535;-60
2023/05/03 11:25:51;;;;;;;18.15;17.15;;;;;;;;;;5001341;28;20022;-59
2023/05/03 11:28:16;;;;;;;18.52;17.48;;;;;;;;;;5001421;28;20456;-59
2023/05/03 11:30:41;;;;;;;32.35;30.67;;;;;;;;;;4999143;28;20041;-59
2023/05/03 11:33:07;;;;;;;26.58;25.15;;;;;;;;;;4997494;28;20042;-59
2023/05/03 11:35:32;;;;;;;20.67;19.48;;;;;;;;;;4999690;28;20038;-59
2023/05/03 11:37:58;;;;;;;19.63;18.52;;;;;;;;;;5001344;28;20099;-59
2023/05/03 11:40:24;;;;;;;17.08;16.08;;;;;;;;;;4999777;28;20026;-59
2023/05/03 11:42:51;;;;;;;21.25;20.05;;;;;;;;;;5000524;28;20488;-59
2023/05/03 11:45:20;;;;;;;17.30;16.30;;;;;;;;;;4995344;28;20493;-60
2023/05/03 11:47:46;;;;;;;18.83;17.27;;;;;;;;;;5000449;28;20088;-59
2023/05/03 11:50:11;;;;;;;18.92;17.52;;;;;;;;;;5001322;28;20504;-59
2023/05/03 11:52:38;;;;;;;20.80;19.65;;;;;;;;;;4999776;28;20105;-59
2023/05/03 11:55:05;;;;;;;24.98;23.65;;;;;;;;;;4999630;28;20038;-60
2023/05/03 11:57:31;;;;;;;20.95;19.80;;;;;;;;;;4998050;28;20035;-59
2023/05/03 12:00:09;;;;;;;21.05;19.90;;;;;;;;;;5000388;28;20058;-60
2023/05/03 12:02:35;;;;;;;20.10;18.90;;;;;;;;;;4997560;28;20037;-59
2023/05/03 12:05:01;;;;;;;19.55;18.45;;;;;;;;;;4992270;28;20085;-59
2023/05/03 12:07:27;;;;;;;18.83;17.80;;;;;;;;;;4998014;28;20041;-59
2023/05/03 12:09:52;;;;;;;19.17;18.08;;;;;;;;;;4997050;28;20030;-59
2023/05/03 12:12:20;;;;;;;20.05;18.95;;;;;;;;;;5001039;28;20530;-60
2023/05/03 12:15:00;;;;;;;20.15;19.05;;;;;;;;;;4999501;28;20061;-59
2023/05/03 12:17:33;;;;;;;19.20;18.10;;;;;;;;;;4997862;28;20034;-59
2023/05/03 12:20:20;;;;;;;19.30;18.20;;;;;;;;;;4996498;28;20045;-59
2023/05/03 12:22:50;;;;;;;18.23;17.23;;;;;;;;;;4996408;28;20040;-53
2023/05/03 12:25:15;;;;;;;18.75;17.70;;;;;;;;;;5000169;28;20565;-59
2023/05/03 12:27:41;;;;;;;17.80;16.70;;;;;;;;;;5000870;28;20053;-51
2023/05/03 12:30:09;;;;;;;15.90;15.00;;;;;;;;;;5002237;28;20070;-59
2023/05/03 12:32:34;;;;;;;18.70;17.50;;;;;;;;;;4999365;28;20049;-51
2023/05/03 12:35:00;;;;;;;18.83;17.83;;;;;;;;;;5002854;28;20034;-59
2023/05/03 12:37:25;;;;;;;18.40;17.40;;;;;;;;;;4983746;28;20111;-60
2023/05/03 12:39:50;;;;;;;20.20;19.10;;;;;;;;;;5000406;28;20040;-60
2023/05/03 12:42:16;;;;;;;23.33;17.10;;;;;;;;;;5000062;28;20041;-59
2023/05/03 12:44:43;;;;;;;18.65;17.55;;;;;;;;;;4997322;28;20029;-60
2023/05/03 12:47:08;;;;;;;16.88;15.82;;;;;;;;;;5001313;28;20049;-60
2023/05/03 12:49:34;;;;;;;25.00;23.50;;;;;;;;;;5003567;28;20034;-60
2023/05/03 12:51:59;;;;;;;25.45;24.08;;;;;;;;;;4999136;28;20112;-60
2023/05/03 12:54:27;;;;;;;26.90;25.42;;;;;;;;;;4998890;28;20111;-51
2023/05/03 12:56:53;;;;;;;26.55;25.10;;;;;;;;;;4997061;28;20352;-60
2023/05/03 12:59:18;;;;;;;26.35;24.95;;;;;;;;;;4997940;28;20057;-60
2023/05/03 13:01:44;;;;;;;32.22;30.52;;;;;;;;;;4997649;28;20050;-53
2023/05/03 13:04:10;;;;;;;35.05;33.17;;;;;;;;;;4986277;28;20650;-55
2023/05/03 13:06:35;;;;;;;23.08;21.73;;;;;;;;;;4996750;28;20045;-63
2023/05/03 13:09:01;;;;;;;24.48;23.17;;;;;;;;;;4999168;28;20034;-61
2023/05/03 13:11:28;;;;;;;30.85;29.17;;;;;;;;;;4993042;28;20034;-60
2023/05/03 13:13:53;;;;;;;29.50;27.80;;;;;;;;;;5000500;28;20116;-63
2023/05/03 13:16:19;;;;;;;38.65;36.65;;;;;;;;;;5003659;28;20464;-60
2023/05/03 13:18:44;;;;;;;30.13;28.52;;;;;;;;;;4997415;28;20100;-59
2023/05/03 13:21:10;;;;;;;26.58;25.08;;;;;;;;;;4995940;28;20114;-50
2023/05/03 13:23:36;;;;;;;32.38;30.70;;;;;;;;;;5001355;28;20108;-53
2023/05/03 13:26:01;;;;;;;30.85;29.25;;;;;;;;;;4999110;28;20464;-52
2023/05/03 13:28:27;;;;;;;32.75;31.02;;;;;;;;;;5001512;28;20633;-62
2023/05/03 13:30:52;;;;;;;29.85;28.25;;;;;;;;;;4995072;28;20112;-60
2023/05/03 13:33:18;;;;;;;29.35;27.83;;;;;;;;;;4998035;28;20053;-53
2023/05/03 13:35:43;;;;;;;31.38;29.75;;;;;;;;;;4998939;28;20038;-53
2023/05/03 13:38:08;;;;;;;30.35;28.55;;;;;;;;;;4988715;28;20069;-60
2023/05/03 13:40:34;;;;;;;26.83;25.40;;;;;;;;;;4996012;28;20053;-54
2023/05/03 13:42:59;;;;;;;28.60;27.02;;;;;;;;;;4996441;28;20679;-53
2023/05/03 13:45:25;;;;;;;32.08;30.42;;;;;;;;;;4996870;28;20030;-54
2023/05/03 13:47:50;;;;;;;29.45;27.83;;;;;;;;;;4982745;28;20452;-53
2023/05/03 13:50:16;;;;;;;29.80;28.25;;;;;;;;;;4998443;28;20037;-52
2023/05/03 13:52:43;;;;;;;28.95;27.45;;;;;;;;;;4999710;28;20049;-60
2023/05/03 13:55:09;;;;;;;34.25;32.47;;;;;;;;;;4997171;28;20116;-53
2023/05/03 13:57:34;;;;;;;30.27;28.67;;;;;;;;;;4994575;28;20062;-58
2023/05/03 13:59:59;;;;;;;29.63;28.10;;;;;;;;;;4999680;28;20045;-52
2023/05/03 14:02:26;;;;;;;34.05;32.30;;;;;;;;;;4997281;28;20034;-60
2023/05/03 14:04:51;;;;;;;25.38;24.05;;;;;;;;;;4987713;28;20062;-60
2023/05/03 14:07:17;;;;;;;21.90;20.73;;;;;;;;;;4977587;28;20177;-53
2023/05/03 14:09:43;;;;;;;24.77;23.33;;;;;;;;;;4999428;28;20034;-49
2023/05/03 14:12:08;;;;;;;30.10;28.17;;;;;;;;;;5000942;28;20672;-59
2023/05/03 14:14:35;;;;;;;42.70;40.45;;;;;;;;;;4994893;28;20034;-54
2023/05/03 14:17:01;;;;;;;43.88;41.55;;;;;;;;;;4981218;28;20044;-54
2023/05/03 14:19:27;;;;;;;37.97;36.05;;;;;;;;;;4996421;28;20495;-50
2023/05/03 14:21:57;;;;;;;50.53;47.95;;;;;;;;;;4996585;28;20103;-59